sensor_id;sensor_type;location;lat;lon;timestamp;P1;durP1;ratioP1;P2;durP2;ratioP2
40993;SDS011;26722;43.212;27.932;2023-04-16T00:00:49;18.38;;;6.57;;
40993;SDS011;26722;43.212;27.932;2023-04-16T00:03:14;21.38;;;6.85;;
40993;SDS011;26722;43.212;27.932;2023-04-16T00:05:40;18.38;;;6.78;;
40993;SDS011;26722;43.212;27.932;2023-04-16T00:08:06;18.10;;;6.38;;
40993;SDS011;26722;43.212;27.932;2023-04-16T00:10:32;20.00;;;7.95;;
40993;SDS011;26722;43.212;27.932;2023-04-16T00:12:58;16.75;;;6.93;;
40993;SDS011;26722;43.212;27.932;2023-04-16T00:15:24;30.27;;;7.80;;
40993;SDS011;26722;43.212;27.932;2023-04-16T00:17:49;18.67;;;6.72;;
40993;SDS011;26722;43.212;27.932;2023-04-16T00:20:15;21.15;;;7.32;;
40993;SDS011;26722;43.212;27.932;2023-04-16T00:22:40;22.50;;;7.47;;
40993;SDS011;26722;43.212;27.932;2023-04-16T00:25:06;20.70;;;7.90;;
40993;SDS011;26722;43.212;27.932;2023-04-16T00:27:32;24.75;;;7.40;;
40993;SDS011;26722;43.212;27.932;2023-04-16T00:29:57;20.23;;;7.38;;
40993;SDS011;26722;43.212;27.932;2023-04-16T00:32:22;23.00;;;7.30;;
40993;SDS011;26722;43.212;27.932;2023-04-16T00:34:48;24.40;;;7.45;;
40993;SDS011;26722;43.212;27.932;2023-04-16T00:37:14;22.13;;;7.78;;
40993;SDS011;26722;43.212;27.932;2023-04-16T00:39:39;16.88;;;7.65;;
40993;SDS011;26722;43.212;27.932;2023-04-16T00:42:05;25.15;;;7.30;;
40993;SDS011;26722;43.212;27.932;2023-04-16T00:44:30;25.70;;;7.63;;
40993;SDS011;26722;43.212;27.932;2023-04-16T00:46:58;19.00;;;7.57;;
40993;SDS011;26722;43.212;27.932;2023-04-16T00:49:24;22.95;;;7.43;;
40993;SDS011;26722;43.212;27.932;2023-04-16T00:51:50;19.25;;;7.07;;
40993;SDS011;26722;43.212;27.932;2023-04-16T00:54:16;24.52;;;7.40;;
40993;SDS011;26722;43.212;27.932;2023-04-16T00:56:41;14.60;;;7.07;;
40993;SDS011;26722;43.212;27.932;2023-04-16T00:59:07;21.92;;;8.68;;
40993;SDS011;26722;43.212;27.932;2023-04-16T01:01:33;22.27;;;7.45;;
40993;SDS011;26722;43.212;27.932;2023-04-16T01:03:58;20.05;;;7.97;;
40993;SDS011;26722;43.212;27.932;2023-04-16T01:06:24;20.17;;;7.13;;
40993;SDS011;26722;43.212;27.932;2023-04-16T01:08:50;20.15;;;7.18;;
40993;SDS011;26722;43.212;27.932;2023-04-16T01:11:16;28.05;;;7.40;;
40993;SDS011;26722;43.212;27.932;2023-04-16T01:13:42;23.83;;;8.00;;
40993;SDS011;26722;43.212;27.932;2023-04-16T01:16:08;24.02;;;7.18;;
40993;SDS011;26722;43.212;27.932;2023-04-16T01:18:35;24.75;;;7.47;;
40993;SDS011;26722;43.212;27.932;2023-04-16T01:21:02;23.60;;;7.72;;
40993;SDS011;26722;43.212;27.932;2023-04-16T01:23:28;20.88;;;7.43;;
40993;SDS011;26722;43.212;27.932;2023-04-16T01:25:53;18.20;;;7.75;;
40993;SDS011;26722;43.212;27.932;2023-04-16T01:28:19;21.38;;;8.45;;
40993;SDS011;26722;43.212;27.932;2023-04-16T01:30:45;21.92;;;7.28;;
40993;SDS011;26722;43.212;27.932;2023-04-16T01:33:11;19.88;;;7.72;;
40993;SDS011;26722;43.212;27.932;2023-04-16T01:35:37;26.52;;;8.30;;
40993;SDS011;26722;43.212;27.932;2023-04-16T01:38:04;23.27;;;7.45;;
40993;SDS011;26722;43.212;27.932;2023-04-16T01:40:32;19.05;;;7.70;;
40993;SDS011;26722;43.212;27.932;2023-04-16T01:42:57;18.23;;;7.38;;
40993;SDS011;26722;43.212;27.932;2023-04-16T01:45:24;22.98;;;8.18;;
40993;SDS011;26722;43.212;27.932;2023-04-16T01:47:49;19.58;;;7.30;;
40993;SDS011;26722;43.212;27.932;2023-04-16T01:50:16;23.48;;;7.20;;
40993;SDS011;26722;43.212;27.932;2023-04-16T01:52:43;21.40;;;7.35;;
40993;SDS011;26722;43.212;27.932;2023-04-16T01:55:09;18.88;;;7.80;;
40993;SDS011;26722;43.212;27.932;2023-04-16T01:57:34;22.27;;;7.60;;
40993;SDS011;26722;43.212;27.932;2023-04-16T02:00:00;22.08;;;7.97;;
40993;SDS011;26722;43.212;27.932;2023-04-16T02:02:26;23.95;;;8.05;;
40993;SDS011;26722;43.212;27.932;2023-04-16T02:04:52;26.02;;;7.65;;
40993;SDS011;26722;43.212;27.932;2023-04-16T02:07:17;26.92;;;8.38;;
40993;SDS011;26722;43.212;27.932;2023-04-16T02:09:43;26.85;;;8.13;;
40993;SDS011;26722;43.212;27.932;2023-04-16T02:12:08;19.42;;;7.47;;
40993;SDS011;26722;43.212;27.932;2023-04-16T02:14:35;24.80;;;8.15;;
40993;SDS011;26722;43.212;27.932;2023-04-16T02:17:01;20.50;;;7.28;;
40993;SDS011;26722;43.212;27.932;2023-04-16T02:19:28;23.75;;;7.68;;
40993;SDS011;26722;43.212;27.932;2023-04-16T02:21:53;22.90;;;7.93;;
40993;SDS011;26722;43.212;27.932;2023-04-16T02:24:19;20.25;;;8.10;;
40993;SDS011;26722;43.212;27.932;2023-04-16T02:26:46;24.50;;;8.55;;
40993;SDS011;26722;43.212;27.932;2023-04-16T02:29:11;21.48;;;8.00;;
40993;SDS011;26722;43.212;27.932;2023-04-16T02:31:37;21.15;;;7.65;;
40993;SDS011;26722;43.212;27.932;2023-04-16T02:34:03;26.02;;;7.95;;
40993;SDS011;26722;43.212;27.932;2023-04-16T02:36:30;28.00;;;7.40;;
40993;SDS011;26722;43.212;27.932;2023-04-16T02:38:58;17.88;;;6.88;;
40993;SDS011;26722;43.212;27.932;2023-04-16T02:41:24;25.38;;;7.97;;
40993;SDS011;26722;43.212;27.932;2023-04-16T02:43:50;21.60;;;7.85;;
40993;SDS011;26722;43.212;27.932;2023-04-16T02:46:15;21.25;;;7.45;;
40993;SDS011;26722;43.212;27.932;2023-04-16T02:48:41;24.58;;;8.10;;
40993;SDS011;26722;43.212;27.932;2023-04-16T02:51:06;23.30;;;8.27;;
40993;SDS011;26722;43.212;27.932;2023-04-16T02:53:32;24.23;;;8.43;;
40993;SDS011;26722;43.212;27.932;2023-04-16T02:55:57;22.33;;;7.30;;
40993;SDS011;26722;43.212;27.932;2023-04-16T02:58:24;19.63;;;7.65;;
40993;SDS011;26722;43.212;27.932;2023-04-16T03:00:50;23.48;;;8.40;;
40993;SDS011;26722;43.212;27.932;2023-04-16T03:03:17;25.27;;;7.97;;
40993;SDS011;26722;43.212;27.932;2023-04-16T03:05:43;22.83;;;7.70;;
40993;SDS011;26722;43.212;27.932;2023-04-16T03:08:09;22.88;;;8.15;;
40993;SDS011;26722;43.212;27.932;2023-04-16T03:10:35;24.42;;;7.95;;
40993;SDS011;26722;43.212;27.932;2023-04-16T03:13:01;22.17;;;7.95;;
40993;SDS011;26722;43.212;27.932;2023-04-16T03:15:27;20.73;;;8.15;;
40993;SDS011;26722;43.212;27.932;2023-04-16T03:17:53;19.52;;;7.97;;
40993;SDS011;26722;43.212;27.932;2023-04-16T03:20:18;22.35;;;8.05;;
40993;SDS011;26722;43.212;27.932;2023-04-16T03:22:47;32.97;;;9.05;;
40993;SDS011;26722;43.212;27.932;2023-04-16T03:25:13;21.35;;;8.07;;
40993;SDS011;26722;43.212;27.932;2023-04-16T03:27:39;21.75;;;8.25;;
40993;SDS011;26722;43.212;27.932;2023-04-16T03:30:14;23.45;;;8.25;;
40993;SDS011;26722;43.212;27.932;2023-04-16T03:32:40;26.63;;;8.27;;
40993;SDS011;26722;43.212;27.932;2023-04-16T03:35:06;22.73;;;6.65;;
40993;SDS011;26722;43.212;27.932;2023-04-16T03:37:33;19.02;;;6.85;;
40993;SDS011;26722;43.212;27.932;2023-04-16T03:39:58;19.17;;;7.47;;
40993;SDS011;26722;43.212;27.932;2023-04-16T03:42:24;22.38;;;6.82;;
40993;SDS011;26722;43.212;27.932;2023-04-16T03:44:49;23.17;;;7.82;;
40993;SDS011;26722;43.212;27.932;2023-04-16T03:47:17;15.85;;;7.75;;
40993;SDS011;26722;43.212;27.932;2023-04-16T03:49:42;22.30;;;7.70;;
40993;SDS011;26722;43.212;27.932;2023-04-16T03:52:08;28.65;;;7.72;;
40993;SDS011;26722;43.212;27.932;2023-04-16T03:54:33;28.42;;;7.45;;
40993;SDS011;26722;43.212;27.932;2023-04-16T03:56:58;22.77;;;7.75;;
40993;SDS011;26722;43.212;27.932;2023-04-16T03:59:25;22.10;;;7.32;;
40993;SDS011;26722;43.212;27.932;2023-04-16T04:01:50;25.15;;;7.15;;
40993;SDS011;26722;43.212;27.932;2023-04-16T04:04:15;22.98;;;7.97;;
40993;SDS011;26722;43.212;27.932;2023-04-16T04:06:41;25.08;;;7.93;;
40993;SDS011;26722;43.212;27.932;2023-04-16T04:09:06;24.70;;;8.80;;
40993;SDS011;26722;43.212;27.932;2023-04-16T04:11:32;25.40;;;8.20;;
40993;SDS011;26722;43.212;27.932;2023-04-16T04:13:58;19.92;;;7.60;;
40993;SDS011;26722;43.212;27.932;2023-04-16T04:16:23;22.80;;;8.05;;
40993;SDS011;26722;43.212;27.932;2023-04-16T04:18:49;25.08;;;7.35;;
40993;SDS011;26722;43.212;27.932;2023-04-16T04:21:14;20.38;;;7.07;;
40993;SDS011;26722;43.212;27.932;2023-04-16T04:23:40;26.23;;;8.15;;
40993;SDS011;26722;43.212;27.932;2023-04-16T04:26:06;27.38;;;8.10;;
40993;SDS011;26722;43.212;27.932;2023-04-16T04:28:33;21.63;;;6.47;;
40993;SDS011;26722;43.212;27.932;2023-04-16T04:30:59;17.42;;;6.35;;
40993;SDS011;26722;43.212;27.932;2023-04-16T04:33:25;19.75;;;7.22;;
40993;SDS011;26722;43.212;27.932;2023-04-16T04:35:51;26.35;;;7.30;;
40993;SDS011;26722;43.212;27.932;2023-04-16T04:38:17;24.00;;;7.78;;
40993;SDS011;26722;43.212;27.932;2023-04-16T04:40:44;25.25;;;7.53;;
40993;SDS011;26722;43.212;27.932;2023-04-16T04:43:10;22.13;;;7.45;;
40993;SDS011;26722;43.212;27.932;2023-04-16T04:45:36;22.27;;;7.32;;
40993;SDS011;26722;43.212;27.932;2023-04-16T04:48:02;23.40;;;7.88;;
40993;SDS011;26722;43.212;27.932;2023-04-16T04:50:28;17.30;;;7.38;;
40993;SDS011;26722;43.212;27.932;2023-04-16T04:52:53;25.30;;;7.38;;
40993;SDS011;26722;43.212;27.932;2023-04-16T04:55:19;16.85;;;7.05;;
40993;SDS011;26722;43.212;27.932;2023-04-16T04:57:44;22.35;;;7.65;;
40993;SDS011;26722;43.212;27.932;2023-04-16T05:00:10;25.55;;;7.45;;
40993;SDS011;26722;43.212;27.932;2023-04-16T05:02:36;23.10;;;6.90;;
40993;SDS011;26722;43.212;27.932;2023-04-16T05:05:02;23.60;;;6.93;;
40993;SDS011;26722;43.212;27.932;2023-04-16T05:07:29;19.05;;;6.47;;
40993;SDS011;26722;43.212;27.932;2023-04-16T05:09:55;17.17;;;6.22;;
40993;SDS011;26722;43.212;27.932;2023-04-16T05:12:21;20.92;;;6.80;;
40993;SDS011;26722;43.212;27.932;2023-04-16T05:14:46;24.08;;;6.70;;
40993;SDS011;26722;43.212;27.932;2023-04-16T05:17:12;19.33;;;6.13;;
40993;SDS011;26722;43.212;27.932;2023-04-16T05:19:37;20.05;;;6.35;;
40993;SDS011;26722;43.212;27.932;2023-04-16T05:22:03;20.35;;;6.75;;
40993;SDS011;26722;43.212;27.932;2023-04-16T05:24:28;28.23;;;6.80;;
40993;SDS011;26722;43.212;27.932;2023-04-16T05:26:55;16.98;;;6.53;;
40993;SDS011;26722;43.212;27.932;2023-04-16T05:29:21;20.65;;;6.28;;
40993;SDS011;26722;43.212;27.932;2023-04-16T05:31:46;17.73;;;5.88;;
40993;SDS011;26722;43.212;27.932;2023-04-16T05:34:12;17.27;;;6.50;;
40993;SDS011;26722;43.212;27.932;2023-04-16T05:36:38;18.42;;;6.78;;
40993;SDS011;26722;43.212;27.932;2023-04-16T05:39:03;15.45;;;5.82;;
40993;SDS011;26722;43.212;27.932;2023-04-16T05:41:29;21.42;;;7.15;;
40993;SDS011;26722;43.212;27.932;2023-04-16T05:43:54;15.15;;;5.72;;
40993;SDS011;26722;43.212;27.932;2023-04-16T05:46:20;20.10;;;6.45;;
40993;SDS011;26722;43.212;27.932;2023-04-16T05:48:45;20.08;;;6.00;;
40993;SDS011;26722;43.212;27.932;2023-04-16T05:51:11;16.63;;;6.25;;
40993;SDS011;26722;43.212;27.932;2023-04-16T05:53:36;21.15;;;6.68;;
40993;SDS011;26722;43.212;27.932;2023-04-16T05:56:02;19.25;;;6.47;;
40993;SDS011;26722;43.212;27.932;2023-04-16T05:58:27;16.80;;;5.47;;
40993;SDS011;26722;43.212;27.932;2023-04-16T06:00:53;19.15;;;5.95;;
40993;SDS011;26722;43.212;27.932;2023-04-16T06:03:19;21.88;;;6.53;;
40993;SDS011;26722;43.212;27.932;2023-04-16T06:05:44;15.15;;;5.07;;
40993;SDS011;26722;43.212;27.932;2023-04-16T06:08:10;15.30;;;6.30;;
40993;SDS011;26722;43.212;27.932;2023-04-16T06:10:36;17.52;;;6.40;;
40993;SDS011;26722;43.212;27.932;2023-04-16T06:13:01;22.48;;;6.65;;
40993;SDS011;26722;43.212;27.932;2023-04-16T06:15:27;17.83;;;5.95;;
40993;SDS011;26722;43.212;27.932;2023-04-16T06:17:53;14.45;;;5.90;;
40993;SDS011;26722;43.212;27.932;2023-04-16T06:20:19;14.90;;;6.25;;
40993;SDS011;26722;43.212;27.932;2023-04-16T06:22:45;24.55;;;5.90;;
40993;SDS011;26722;43.212;27.932;2023-04-16T06:25:11;14.55;;;5.57;;
40993;SDS011;26722;43.212;27.932;2023-04-16T06:27:36;16.15;;;5.53;;
40993;SDS011;26722;43.212;27.932;2023-04-16T06:30:02;15.30;;;6.30;;
40993;SDS011;26722;43.212;27.932;2023-04-16T06:32:28;17.95;;;6.38;;
40993;SDS011;26722;43.212;27.932;2023-04-16T06:34:54;13.82;;;5.72;;
40993;SDS011;26722;43.212;27.932;2023-04-16T06:37:20;17.42;;;6.35;;
40993;SDS011;26722;43.212;27.932;2023-04-16T06:39:46;21.10;;;6.07;;
40993;SDS011;26722;43.212;27.932;2023-04-16T06:42:11;16.73;;;6.30;;
40993;SDS011;26722;43.212;27.932;2023-04-16T06:44:37;24.92;;;6.47;;
40993;SDS011;26722;43.212;27.932;2023-04-16T06:47:02;19.65;;;6.53;;
40993;SDS011;26722;43.212;27.932;2023-04-16T06:49:28;21.80;;;5.82;;
40993;SDS011;26722;43.212;27.932;2023-04-16T06:51:53;14.63;;;6.00;;
40993;SDS011;26722;43.212;27.932;2023-04-16T06:54:19;14.32;;;6.13;;
40993;SDS011;26722;43.212;27.932;2023-04-16T06:56:44;15.75;;;5.65;;
40993;SDS011;26722;43.212;27.932;2023-04-16T06:59:10;14.55;;;5.20;;
40993;SDS011;26722;43.212;27.932;2023-04-16T07:01:35;20.33;;;5.65;;
40993;SDS011;26722;43.212;27.932;2023-04-16T07:04:01;15.98;;;5.82;;
40993;SDS011;26722;43.212;27.932;2023-04-16T07:06:27;18.85;;;6.57;;
40993;SDS011;26722;43.212;27.932;2023-04-16T07:08:53;15.52;;;5.82;;
40993;SDS011;26722;43.212;27.932;2023-04-16T07:11:18;14.25;;;5.68;;
40993;SDS011;26722;43.212;27.932;2023-04-16T07:13:44;17.92;;;6.50;;
40993;SDS011;26722;43.212;27.932;2023-04-16T07:16:10;19.58;;;6.93;;
40993;SDS011;26722;43.212;27.932;2023-04-16T07:18:36;17.60;;;6.28;;
40993;SDS011;26722;43.212;27.932;2023-04-16T07:21:01;23.98;;;6.40;;
40993;SDS011;26722;43.212;27.932;2023-04-16T07:23:28;13.73;;;6.00;;
40993;SDS011;26722;43.212;27.932;2023-04-16T07:25:54;15.82;;;6.20;;
40993;SDS011;26722;43.212;27.932;2023-04-16T07:28:19;19.23;;;6.97;;
40993;SDS011;26722;43.212;27.932;2023-04-16T07:30:45;11.73;;;6.90;;
40993;SDS011;26722;43.212;27.932;2023-04-16T07:33:10;16.08;;;7.00;;
40993;SDS011;26722;43.212;27.932;2023-04-16T07:35:36;18.10;;;7.15;;
40993;SDS011;26722;43.212;27.932;2023-04-16T07:38:01;17.90;;;7.05;;
40993;SDS011;26722;43.212;27.932;2023-04-16T07:40:27;19.00;;;6.82;;
40993;SDS011;26722;43.212;27.932;2023-04-16T07:42:53;15.27;;;6.50;;
40993;SDS011;26722;43.212;27.932;2023-04-16T07:45:19;17.77;;;6.88;;
40993;SDS011;26722;43.212;27.932;2023-04-16T07:47:45;18.15;;;6.80;;
40993;SDS011;26722;43.212;27.932;2023-04-16T07:50:11;13.25;;;6.50;;
40993;SDS011;26722;43.212;27.932;2023-04-16T07:52:36;12.43;;;7.05;;
40993;SDS011;26722;43.212;27.932;2023-04-16T07:55:07;16.13;;;6.22;;
40993;SDS011;26722;43.212;27.932;2023-04-16T07:57:33;16.58;;;6.65;;
40993;SDS011;26722;43.212;27.932;2023-04-16T07:59:59;19.23;;;6.55;;
40993;SDS011;26722;43.212;27.932;2023-04-16T08:02:26;16.15;;;5.40;;
40993;SDS011;26722;43.212;27.932;2023-04-16T08:04:51;16.98;;;5.65;;
40993;SDS011;26722;43.212;27.932;2023-04-16T08:07:17;16.67;;;6.65;;
40993;SDS011;26722;43.212;27.932;2023-04-16T08:09:46;16.98;;;6.32;;
40993;SDS011;26722;43.212;27.932;2023-04-16T08:12:13;19.42;;;6.95;;
40993;SDS011;26722;43.212;27.932;2023-04-16T08:14:38;20.30;;;6.47;;
40993;SDS011;26722;43.212;27.932;2023-04-16T08:17:05;14.57;;;5.53;;
40993;SDS011;26722;43.212;27.932;2023-04-16T08:19:30;21.50;;;6.65;;
40993;SDS011;26722;43.212;27.932;2023-04-16T08:21:56;22.15;;;6.65;;
40993;SDS011;26722;43.212;27.932;2023-04-16T08:24:21;13.63;;;5.60;;
40993;SDS011;26722;43.212;27.932;2023-04-16T08:26:47;16.60;;;6.25;;
40993;SDS011;26722;43.212;27.932;2023-04-16T08:29:12;17.17;;;6.28;;
40993;SDS011;26722;43.212;27.932;2023-04-16T08:31:38;13.05;;;6.00;;
40993;SDS011;26722;43.212;27.932;2023-04-16T08:34:04;17.30;;;5.95;;
40993;SDS011;26722;43.212;27.932;2023-04-16T08:36:29;14.65;;;5.82;;
40993;SDS011;26722;43.212;27.932;2023-04-16T08:38:55;18.52;;;5.70;;
40993;SDS011;26722;43.212;27.932;2023-04-16T08:41:21;22.80;;;5.80;;
40993;SDS011;26722;43.212;27.932;2023-04-16T08:43:48;14.73;;;5.40;;
40993;SDS011;26722;43.212;27.932;2023-04-16T08:46:15;21.25;;;5.72;;
40993;SDS011;26722;43.212;27.932;2023-04-16T08:48:41;14.45;;;5.60;;
40993;SDS011;26722;43.212;27.932;2023-04-16T08:51:11;13.38;;;5.57;;
40993;SDS011;26722;43.212;27.932;2023-04-16T08:53:42;13.48;;;5.53;;
40993;SDS011;26722;43.212;27.932;2023-04-16T08:56:13;10.07;;;5.65;;
40993;SDS011;26722;43.212;27.932;2023-04-16T08:58:39;16.45;;;5.38;;
40993;SDS011;26722;43.212;27.932;2023-04-16T09:01:05;13.38;;;5.65;;
40993;SDS011;26722;43.212;27.932;2023-04-16T09:03:34;15.13;;;5.18;;
40993;SDS011;26722;43.212;27.932;2023-04-16T09:06:00;10.57;;;4.95;;
40993;SDS011;26722;43.212;27.932;2023-04-16T09:08:28;15.95;;;5.38;;
40993;SDS011;26722;43.212;27.932;2023-04-16T09:10:57;13.50;;;4.57;;
40993;SDS011;26722;43.212;27.932;2023-04-16T09:13:23;11.85;;;5.20;;
40993;SDS011;26722;43.212;27.932;2023-04-16T09:15:52;13.40;;;5.70;;
40993;SDS011;26722;43.212;27.932;2023-04-16T09:18:19;14.52;;;5.82;;
40993;SDS011;26722;43.212;27.932;2023-04-16T09:20:46;14.85;;;6.60;;
40993;SDS011;26722;43.212;27.932;2023-04-16T09:23:12;16.38;;;6.53;;
40993;SDS011;26722;43.212;27.932;2023-04-16T09:25:38;14.85;;;6.60;;
40993;SDS011;26722;43.212;27.932;2023-04-16T09:28:04;15.48;;;7.10;;
40993;SDS011;26722;43.212;27.932;2023-04-16T09:30:29;16.15;;;7.20;;
40993;SDS011;26722;43.212;27.932;2023-04-16T09:35:44;12.57;;;6.53;;
40993;SDS011;26722;43.212;27.932;2023-04-16T09:38:11;12.02;;;5.78;;
40993;SDS011;26722;43.212;27.932;2023-04-16T09:40:37;10.20;;;6.10;;
40993;SDS011;26722;43.212;27.932;2023-04-16T09:43:10;8.50;;;5.57;;
40993;SDS011;26722;43.212;27.932;2023-04-16T09:45:53;9.10;;;5.38;;
40993;SDS011;26722;43.212;27.932;2023-04-16T09:48:29;10.45;;;6.60;;
40993;SDS011;26722;43.212;27.932;2023-04-16T09:50:55;10.45;;;5.75;;
40993;SDS011;26722;43.212;27.932;2023-04-16T09:53:25;11.57;;;5.35;;
40993;SDS011;26722;43.212;27.932;2023-04-16T09:55:55;11.85;;;5.45;;
40993;SDS011;26722;43.212;27.932;2023-04-16T09:58:24;11.63;;;6.75;;
40993;SDS011;26722;43.212;27.932;2023-04-16T10:01:09;11.60;;;6.25;;
40993;SDS011;26722;43.212;27.932;2023-04-16T10:03:37;14.25;;;6.20;;
40993;SDS011;26722;43.212;27.932;2023-04-16T10:08:31;12.20;;;6.05;;
40993;SDS011;26722;43.212;27.932;2023-04-16T10:10:57;10.98;;;5.95;;
40993;SDS011;26722;43.212;27.932;2023-04-16T10:13:23;14.10;;;6.50;;
40993;SDS011;26722;43.212;27.932;2023-04-16T10:15:53;16.38;;;6.53;;
40993;SDS011;26722;43.212;27.932;2023-04-16T10:18:20;12.30;;;6.90;;
40993;SDS011;26722;43.212;27.932;2023-04-16T10:20:46;16.60;;;6.45;;
40993;SDS011;26722;43.212;27.932;2023-04-16T10:23:13;11.45;;;6.50;;
40993;SDS011;26722;43.212;27.932;2023-04-16T10:25:39;14.05;;;6.25;;
40993;SDS011;26722;43.212;27.932;2023-04-16T10:28:07;13.65;;;6.45;;
40993;SDS011;26722;43.212;27.932;2023-04-16T10:30:34;12.60;;;5.30;;
40993;SDS011;26722;43.212;27.932;2023-04-16T10:33:02;13.93;;;6.13;;
40993;SDS011;26722;43.212;27.932;2023-04-16T10:35:29;14.60;;;5.65;;
40993;SDS011;26722;43.212;27.932;2023-04-16T10:37:55;19.10;;;6.85;;
40993;SDS011;26722;43.212;27.932;2023-04-16T10:40:25;15.93;;;6.18;;
40993;SDS011;26722;43.212;27.932;2023-04-16T10:42:57;16.20;;;6.13;;
40993;SDS011;26722;43.212;27.932;2023-04-16T10:45:30;14.43;;;6.18;;
40993;SDS011;26722;43.212;27.932;2023-04-16T10:47:57;23.77;;;7.57;;
40993;SDS011;26722;43.212;27.932;2023-04-16T10:50:23;13.38;;;6.45;;
40993;SDS011;26722;43.212;27.932;2023-04-16T10:52:52;18.23;;;5.97;;
40993;SDS011;26722;43.212;27.932;2023-04-16T10:56:21;15.93;;;6.22;;
40993;SDS011;26722;43.212;27.932;2023-04-16T10:58:39;14.17;;;5.97;;
40993;SDS011;26722;43.212;27.932;2023-04-16T11:01:14;18.92;;;6.28;;
40993;SDS011;26722;43.212;27.932;2023-04-16T11:03:45;19.45;;;7.00;;
40993;SDS011;26722;43.212;27.932;2023-04-16T11:06:15;15.73;;;6.55;;
40993;SDS011;26722;43.212;27.932;2023-04-16T11:08:49;20.23;;;6.53;;
40993;SDS011;26722;43.212;27.932;2023-04-16T11:11:16;14.63;;;5.63;;
40993;SDS011;26722;43.212;27.932;2023-04-16T11:13:42;12.82;;;5.93;;
40993;SDS011;26722;43.212;27.932;2023-04-16T11:16:12;14.85;;;5.75;;
40993;SDS011;26722;43.212;27.932;2023-04-16T11:18:39;16.35;;;6.20;;
40993;SDS011;26722;43.212;27.932;2023-04-16T11:21:06;22.83;;;6.13;;
40993;SDS011;26722;43.212;27.932;2023-04-16T11:23:46;14.07;;;5.65;;
40993;SDS011;26722;43.212;27.932;2023-04-16T11:26:22;17.73;;;5.80;;
40993;SDS011;26722;43.212;27.932;2023-04-16T11:28:57;14.30;;;6.32;;
40993;SDS011;26722;43.212;27.932;2023-04-16T11:31:24;19.63;;;5.90;;
40993;SDS011;26722;43.212;27.932;2023-04-16T11:33:51;14.60;;;5.72;;
40993;SDS011;26722;43.212;27.932;2023-04-16T11:36:16;14.68;;;5.90;;
40993;SDS011;26722;43.212;27.932;2023-04-16T11:38:42;17.60;;;6.47;;
40993;SDS011;26722;43.212;27.932;2023-04-16T11:41:08;21.13;;;6.07;;
40993;SDS011;26722;43.212;27.932;2023-04-16T11:43:35;19.88;;;6.15;;
40993;SDS011;26722;43.212;27.932;2023-04-16T11:46:01;17.60;;;5.78;;
40993;SDS011;26722;43.212;27.932;2023-04-16T11:51:12;15.50;;;5.32;;
40993;SDS011;26722;43.212;27.932;2023-04-16T11:53:48;16.73;;;5.88;;
40993;SDS011;26722;43.212;27.932;2023-04-16T11:56:24;16.70;;;6.50;;
40993;SDS011;26722;43.212;27.932;2023-04-16T11:59:09;22.38;;;6.35;;
40993;SDS011;26722;43.212;27.932;2023-04-16T12:01:40;18.00;;;6.07;;
40993;SDS011;26722;43.212;27.932;2023-04-16T12:04:06;16.20;;;6.10;;
40993;SDS011;26722;43.212;27.932;2023-04-16T12:06:32;18.27;;;6.80;;
40993;SDS011;26722;43.212;27.932;2023-04-16T12:08:58;19.27;;;6.20;;
40993;SDS011;26722;43.212;27.932;2023-04-16T12:11:40;20.00;;;6.45;;
40993;SDS011;26722;43.212;27.932;2023-04-16T12:14:09;17.08;;;6.18;;
40993;SDS011;26722;43.212;27.932;2023-04-16T12:16:35;17.23;;;6.32;;
40993;SDS011;26722;43.212;27.932;2023-04-16T12:19:01;16.02;;;5.93;;
40993;SDS011;26722;43.212;27.932;2023-04-16T12:24:11;17.00;;;6.07;;
40993;SDS011;26722;43.212;27.932;2023-04-16T12:26:50;18.13;;;6.03;;
40993;SDS011;26722;43.212;27.932;2023-04-16T12:29:24;20.02;;;6.28;;
40993;SDS011;26722;43.212;27.932;2023-04-16T12:31:52;14.93;;;6.10;;
40993;SDS011;26722;43.212;27.932;2023-04-16T12:34:18;16.50;;;5.40;;
40993;SDS011;26722;43.212;27.932;2023-04-16T12:36:45;21.27;;;6.10;;
40993;SDS011;26722;43.212;27.932;2023-04-16T12:39:13;20.25;;;6.40;;
40993;SDS011;26722;43.212;27.932;2023-04-16T12:41:41;15.63;;;5.57;;
40993;SDS011;26722;43.212;27.932;2023-04-16T12:44:08;23.40;;;6.38;;
40993;SDS011;26722;43.212;27.932;2023-04-16T12:46:38;20.20;;;6.03;;
40993;SDS011;26722;43.212;27.932;2023-04-16T12:49:04;15.43;;;6.15;;
40993;SDS011;26722;43.212;27.932;2023-04-16T12:51:31;16.25;;;6.10;;
40993;SDS011;26722;43.212;27.932;2023-04-16T12:53:57;16.02;;;6.20;;
40993;SDS011;26722;43.212;27.932;2023-04-16T12:56:22;20.60;;;5.88;;
40993;SDS011;26722;43.212;27.932;2023-04-16T12:58:48;10.63;;;5.05;;
40993;SDS011;26722;43.212;27.932;2023-04-16T13:01:19;15.25;;;5.85;;
40993;SDS011;26722;43.212;27.932;2023-04-16T13:03:45;15.38;;;5.45;;
40993;SDS011;26722;43.212;27.932;2023-04-16T13:06:11;19.48;;;6.10;;
40993;SDS011;26722;43.212;27.932;2023-04-16T13:08:38;17.33;;;5.57;;
40993;SDS011;26722;43.212;27.932;2023-04-16T13:11:04;23.35;;;6.30;;
40993;SDS011;26722;43.212;27.932;2023-04-16T13:13:30;15.35;;;6.15;;
40993;SDS011;26722;43.212;27.932;2023-04-16T13:15:56;25.42;;;7.00;;
40993;SDS011;26722;43.212;27.932;2023-04-16T13:18:22;17.70;;;6.32;;
40993;SDS011;26722;43.212;27.932;2023-04-16T13:20:47;19.30;;;6.10;;
40993;SDS011;26722;43.212;27.932;2023-04-16T13:23:13;14.75;;;5.80;;
40993;SDS011;26722;43.212;27.932;2023-04-16T13:25:38;21.60;;;6.65;;
40993;SDS011;26722;43.212;27.932;2023-04-16T13:28:04;19.33;;;6.22;;
40993;SDS011;26722;43.212;27.932;2023-04-16T13:30:30;18.08;;;6.80;;
40993;SDS011;26722;43.212;27.932;2023-04-16T13:32:57;21.52;;;7.32;;
40993;SDS011;26722;43.212;27.932;2023-04-16T13:35:23;19.35;;;6.40;;
40993;SDS011;26722;43.212;27.932;2023-04-16T13:37:49;22.05;;;6.93;;
40993;SDS011;26722;43.212;27.932;2023-04-16T13:40:15;21.23;;;6.47;;
40993;SDS011;26722;43.212;27.932;2023-04-16T13:42:40;17.40;;;6.30;;
40993;SDS011;26722;43.212;27.932;2023-04-16T13:45:06;21.50;;;6.55;;
40993;SDS011;26722;43.212;27.932;2023-04-16T13:47:33;17.83;;;6.30;;
40993;SDS011;26722;43.212;27.932;2023-04-16T13:50:00;18.98;;;6.40;;
40993;SDS011;26722;43.212;27.932;2023-04-16T13:52:26;20.95;;;6.68;;
40993;SDS011;26722;43.212;27.932;2023-04-16T13:54:51;19.63;;;6.70;;
40993;SDS011;26722;43.212;27.932;2023-04-16T13:57:17;18.63;;;6.80;;
40993;SDS011;26722;43.212;27.932;2023-04-16T13:59:43;25.48;;;7.38;;
40993;SDS011;26722;43.212;27.932;2023-04-16T14:02:09;23.17;;;7.38;;
40993;SDS011;26722;43.212;27.932;2023-04-16T14:04:35;19.98;;;6.90;;
40993;SDS011;26722;43.212;27.932;2023-04-16T14:07:01;20.75;;;6.90;;
40993;SDS011;26722;43.212;27.932;2023-04-16T14:09:26;18.77;;;6.50;;
40993;SDS011;26722;43.212;27.932;2023-04-16T14:11:52;24.55;;;7.60;;
40993;SDS011;26722;43.212;27.932;2023-04-16T14:14:18;27.58;;;7.53;;
40993;SDS011;26722;43.212;27.932;2023-04-16T14:16:43;24.33;;;7.38;;
40993;SDS011;26722;43.212;27.932;2023-04-16T14:19:09;24.27;;;7.38;;
40993;SDS011;26722;43.212;27.932;2023-04-16T14:21:34;22.30;;;6.75;;
40993;SDS011;26722;43.212;27.932;2023-04-16T14:24:00;17.55;;;7.15;;
40993;SDS011;26722;43.212;27.932;2023-04-16T14:26:26;19.98;;;6.95;;
40993;SDS011;26722;43.212;27.932;2023-04-16T14:28:52;28.65;;;7.63;;